createdAt,value
2022-11-07T00:00:50.153Z,39.9
2022-11-07T00:01:52.244Z,36.4
2022-11-07T00:02:56.629Z,37.9
2022-11-07T00:04:01.641Z,39.5
2022-11-07T00:05:05.707Z,38.5
2022-11-07T00:06:09.774Z,38.7
2022-11-07T00:07:13.811Z,40.1
2022-11-07T00:08:18.957Z,37.4
2022-11-07T00:09:23.554Z,39.8
2022-11-07T00:10:28.124Z,39.7
2022-11-07T00:11:32.228Z,40.1
2022-11-07T00:12:36.777Z,38.7
2022-11-07T00:13:41.304Z,38
2022-11-07T00:14:45.334Z,38.9
2022-11-07T00:15:49.605Z,39.2
2022-11-07T00:16:59.456Z,38
2022-11-07T00:18:03.963Z,39.3
2022-11-07T00:19:08.659Z,36.8
2022-11-07T00:20:12.994Z,39.3
2022-11-07T00:21:17.544Z,38.5
2022-11-07T00:22:21.692Z,38.5
2022-11-07T00:23:25.737Z,40
2022-11-07T00:24:30.300Z,41
2022-11-07T00:25:34.322Z,37.7
2022-11-07T00:26:38.592Z,39.5
2022-11-07T00:27:43.217Z,42.3
2022-11-07T00:28:47.931Z,41
2022-11-07T00:29:52.253Z,36.8
2022-11-07T00:30:56.401Z,38
2022-11-07T00:32:00.642Z,36.8
2022-11-07T00:33:05.000Z,38.6
2022-11-07T00:34:09.032Z,36.1
2022-11-07T00:35:13.941Z,36.7
2022-11-07T00:36:18.296Z,37.4
2022-11-07T00:37:22.844Z,36.7
2022-11-07T00:38:27.425Z,39.2
2022-11-07T00:39:31.907Z,37.2
2022-11-07T00:40:36.113Z,35.9
2022-11-07T00:41:40.153Z,36.5
2022-11-07T00:42:44.794Z,37.5
2022-11-07T00:43:49.592Z,35.5
2022-11-07T00:44:54.009Z,35.7
2022-11-07T00:45:58.541Z,37
2022-11-07T00:47:02.641Z,37.3
2022-11-07T00:48:07.233Z,36
2022-11-07T00:49:11.748Z,36.5
2022-11-07T00:50:16.460Z,37.2
2022-11-07T00:51:21.111Z,38.5
2022-11-07T00:52:25.564Z,37.4
2022-11-07T00:53:30.084Z,36.1
2022-11-07T00:54:34.285Z,36.4
2022-11-07T00:55:38.725Z,38.6
2022-11-07T00:56:43.269Z,35.2
2022-11-07T00:57:47.397Z,38.1
2022-11-07T00:58:51.464Z,34.5
2022-11-07T00:59:58.636Z,35.5
2022-11-07T01:01:02.732Z,34.7
2022-11-07T01:02:10.007Z,36.6
2022-11-07T01:03:14.200Z,36.4
2022-11-07T01:04:23.543Z,38.4
2022-11-07T01:05:32.807Z,37.2
2022-11-07T01:06:36.917Z,37
2022-11-07T01:07:41.487Z,35.8
2022-11-07T01:08:45.985Z,34.6
2022-11-07T01:09:50.217Z,35.2
2022-11-07T01:10:54.761Z,33.5
2022-11-07T01:11:59.413Z,32.7
2022-11-07T01:13:03.800Z,34.8
2022-11-07T01:14:07.971Z,38.3
2022-11-07T01:15:12.061Z,36.1
2022-11-07T01:16:16.709Z,36.6
2022-11-07T01:17:21.733Z,34.1
2022-11-07T01:18:26.232Z,34.1
2022-11-07T01:19:30.546Z,36.2
2022-11-07T01:20:34.929Z,34.4
2022-11-07T01:21:39.135Z,34.2
2022-11-07T01:22:43.619Z,35.1
2022-11-07T01:23:47.739Z,34.8
2022-11-07T01:24:52.402Z,34.6
2022-11-07T01:25:56.908Z,34.5
2022-11-07T01:27:07.684Z,36.5
2022-11-07T01:28:11.806Z,39.3
2022-11-07T01:29:16.635Z,31.1
2022-11-07T01:30:20.904Z,37.3
2022-11-07T01:31:25.866Z,33.7
2022-11-07T01:32:30.036Z,33.7
2022-11-07T01:33:34.675Z,34.8
2022-11-07T01:34:39.264Z,34.1
2022-11-07T01:35:43.749Z,33.9
2022-11-07T01:36:47.888Z,35.4
2022-11-07T01:37:52.447Z,34.1
2022-11-07T01:38:56.512Z,35.8
2022-11-07T01:40:00.523Z,35.9
2022-11-07T01:41:05.203Z,34.1
2022-11-07T01:42:14.892Z,34.1
2022-11-07T01:43:19.388Z,35.1
2022-11-07T01:44:23.554Z,35.5
2022-11-07T01:45:27.520Z,36.5
2022-11-07T01:46:31.696Z,37.6
2022-11-07T01:47:41.369Z,37.6
2022-11-07T01:48:45.966Z,35
2022-11-07T01:49:50.271Z,35.6
2022-11-07T01:50:54.665Z,39.9
2022-11-07T01:51:59.306Z,36.6
2022-11-07T01:53:09.966Z,38.9
2022-11-07T01:54:14.702Z,35
2022-11-07T01:55:19.004Z,39.2
2022-11-07T01:56:26.254Z,37.3
2022-11-07T01:57:30.821Z,35.5
2022-11-07T01:58:43.457Z,36.5
2022-11-07T01:59:47.597Z,37.3
2022-11-07T02:00:51.727Z,36.9
2022-11-07T02:01:56.368Z,36.5
2022-11-07T02:03:00.941Z,38.4
2022-11-07T02:04:07.923Z,36.6
2022-11-07T02:05:12.440Z,34.9
2022-11-07T02:06:21.702Z,38.4
2022-11-07T02:07:34.296Z,36.1
2022-11-07T02:08:38.471Z,34.8
2022-11-07T02:09:42.654Z,36
2022-11-07T02:10:47.243Z,36.3
2022-11-07T02:11:51.317Z,37.8
2022-11-07T02:12:56.029Z,38.2
2022-11-07T02:14:00.469Z,37.9
2022-11-07T02:15:04.605Z,36.3
2022-11-07T02:16:09.387Z,36.3
2022-11-07T02:17:13.714Z,35.5
2022-11-07T02:18:18.114Z,36.1
2022-11-07T02:19:22.637Z,35.1
2022-11-07T02:20:31.957Z,37.1
2022-11-07T02:21:36.031Z,35.9
2022-11-07T02:22:40.214Z,35
2022-11-07T02:23:49.419Z,37.1
2022-11-07T02:24:54.093Z,35.3
2022-11-07T02:25:58.537Z,37.3
2022-11-07T02:27:02.794Z,37.3
2022-11-07T02:28:07.373Z,35.9
2022-11-07T02:29:11.842Z,32.2
2022-11-07T02:30:16.086Z,36.3
2022-11-07T02:31:26.137Z,40.7
2022-11-07T02:32:30.465Z,32.6
2022-11-07T02:33:34.722Z,36.1
2022-11-07T02:34:38.905Z,35
2022-11-07T02:35:43.522Z,33.8
2022-11-07T02:36:47.962Z,34
2022-11-07T02:37:52.237Z,35.7
2022-11-07T02:38:56.825Z,35.4
2022-11-07T02:40:00.913Z,35.4
2022-11-07T02:41:05.593Z,36.6
2022-11-07T02:42:15.093Z,35.8
2022-11-07T02:43:19.814Z,38.6
2022-11-07T02:44:24.298Z,38
2022-11-07T02:45:28.821Z,31.5
2022-11-07T02:46:33.468Z,36
2022-11-07T02:47:37.970Z,36.9
2022-11-07T02:48:42.550Z,36.2
2022-11-07T02:49:47.129Z,36.3
2022-11-07T02:50:51.258Z,37.3
2022-11-07T02:51:55.831Z,35.1
2022-11-07T02:53:00.349Z,35.4
2022-11-07T02:54:04.541Z,35.5
2022-11-07T02:55:08.999Z,35.5
2022-11-07T02:56:13.146Z,38.5
2022-11-07T02:57:17.744Z,37.2
2022-11-07T02:58:22.369Z,37
2022-11-07T02:59:27.319Z,36.4
2022-11-07T03:00:31.169Z,35.7
2022-11-07T03:01:35.674Z,37.6
2022-11-07T03:02:40.576Z,37.4
2022-11-07T03:03:47.685Z,35.8
2022-11-07T03:04:52.141Z,37.4
2022-11-07T03:05:56.636Z,36.1
2022-11-07T03:07:01.122Z,35.8
2022-11-07T03:08:06.097Z,41.5
2022-11-07T03:09:10.222Z,37.7
2022-11-07T03:10:14.810Z,38.2
2022-11-07T03:11:19.406Z,39.3
2022-11-07T03:12:23.969Z,37.4
2022-11-07T03:13:27.961Z,36.8
2022-11-07T03:14:32.491Z,37
2022-11-07T03:15:36.600Z,37
2022-11-07T03:16:40.630Z,37.8
2022-11-07T03:17:44.829Z,38.5
2022-11-07T03:18:49.286Z,38.4
2022-11-07T03:19:53.905Z,38.2
2022-11-07T03:20:58.152Z,38.1
2022-11-07T03:22:02.598Z,37.5
2022-11-07T03:23:06.781Z,39.4
2022-11-07T03:24:10.884Z,37.1
2022-11-07T03:25:15.440Z,37.8
2022-11-07T03:26:19.907Z,38.1
2022-11-07T03:27:24.102Z,39.6
2022-11-07T03:28:28.649Z,35.2
2022-11-07T03:29:33.084Z,38.8
2022-11-07T03:30:37.324Z,37.6
2022-11-07T03:31:42.289Z,37.2
2022-11-07T03:32:46.491Z,39.6
2022-11-07T03:33:53.718Z,37.6
2022-11-07T03:34:58.136Z,38.5
2022-11-07T03:36:02.309Z,39.8
2022-11-07T03:37:06.769Z,36.3
2022-11-07T03:38:11.032Z,44.4
2022-11-07T03:39:15.610Z,39.6
2022-11-07T03:40:20.165Z,39.5
2022-11-07T03:41:24.715Z,42.6
2022-11-07T03:42:29.181Z,41
2022-11-07T03:43:33.401Z,36.5
2022-11-07T03:44:37.885Z,38.9
2022-11-07T03:45:42.050Z,35.6
2022-11-07T03:46:46.694Z,36.3
2022-11-07T03:47:51.153Z,37.1
2022-11-07T03:48:55.155Z,36.3
2022-11-07T03:49:59.457Z,37.4
2022-11-07T03:51:03.856Z,36
2022-11-07T03:52:08.093Z,37.6
2022-11-07T03:53:12.998Z,43.9
2022-11-07T03:54:16.697Z,36.9
2022-11-07T03:55:21.176Z,39.4
2022-11-07T03:56:25.753Z,38.6
2022-11-07T03:57:29.753Z,39.5
2022-11-07T03:58:34.006Z,38
2022-11-07T03:59:38.565Z,36.8
2022-11-07T04:00:43.126Z,36.1
2022-11-07T04:01:47.798Z,36.8
2022-11-07T04:02:51.816Z,39.4
2022-11-07T04:03:56.417Z,34.5
2022-11-07T04:05:00.104Z,37.1
2022-11-07T04:06:04.548Z,36.7
2022-11-07T04:07:09.129Z,35
2022-11-07T04:08:13.729Z,37.1
2022-11-07T04:09:18.233Z,34.4
2022-11-07T04:10:22.414Z,34.8
2022-11-07T04:11:26.943Z,34.7
2022-11-07T04:12:36.774Z,33.3
2022-11-07T04:13:46.302Z,38.5
2022-11-07T04:14:56.178Z,37.1
2022-11-07T04:16:05.599Z,33.2
2022-11-07T04:17:15.296Z,34.7
2022-11-07T04:18:19.218Z,35.8
2022-11-07T04:19:23.879Z,36.3
2022-11-07T04:20:28.519Z,35.1
2022-11-07T04:21:32.815Z,33.6
2022-11-07T04:22:37.285Z,36.8
2022-11-07T04:23:41.848Z,37.6
2022-11-07T04:24:46.592Z,39.9
2022-11-07T04:25:51.261Z,43.1
2022-11-07T04:27:00.715Z,40.1
2022-11-07T04:28:10.355Z,40.4
2022-11-07T04:29:14.972Z,37.2
2022-11-07T04:30:19.807Z,39
2022-11-07T04:31:23.539Z,43.1
2022-11-07T04:32:27.701Z,40.2
2022-11-07T04:33:31.825Z,42
2022-11-07T04:34:36.392Z,38
2022-11-07T04:35:40.748Z,40
2022-11-07T04:36:45.020Z,34.4
2022-11-07T04:37:49.592Z,35.8
2022-11-07T04:38:53.760Z,35.7
2022-11-07T04:39:58.396Z,34.3
2022-11-07T04:41:03.112Z,32.7
2022-11-07T04:42:07.423Z,34.7
2022-11-07T04:43:12.534Z,36.2
2022-11-07T04:44:16.588Z,38.1
2022-11-07T04:45:21.160Z,38.2
2022-11-07T04:46:25.326Z,35.4
2022-11-07T04:47:29.823Z,31.1
2022-11-07T04:48:33.900Z,33.6
2022-11-07T04:49:38.461Z,33.2
2022-11-07T04:50:42.537Z,28.8
2022-11-07T04:51:47.160Z,28.6
2022-11-07T04:52:51.805Z,27.9
2022-11-07T04:53:56.397Z,28.4
2022-11-07T04:55:00.950Z,27.3
2022-11-07T04:56:05.552Z,28.7
2022-11-07T04:57:09.809Z,30.1
2022-11-07T04:58:14.627Z,29.4
2022-11-07T04:59:19.395Z,27.9
2022-11-07T05:00:23.932Z,27
2022-11-07T05:01:28.364Z,26.5
2022-11-07T05:02:33.067Z,27.4
2022-11-07T05:03:41.438Z,27.5
2022-11-07T05:04:41.701Z,27.2
2022-11-07T05:05:46.347Z,28.3
2022-11-07T05:06:50.827Z,26.4
2022-11-07T05:07:55.472Z,27.7
2022-11-07T05:09:00.100Z,30
2022-11-07T05:10:09.639Z,30
2022-11-07T05:11:15.345Z,29.2
2022-11-07T05:12:19.821Z,33.4
2022-11-07T05:13:24.293Z,31.6
2022-11-07T05:14:28.511Z,33.8
2022-11-07T05:15:32.452Z,35.6
2022-11-07T05:16:37.058Z,32
2022-11-07T05:17:41.222Z,32.1
2022-11-07T05:18:45.638Z,35.8
2022-11-07T05:19:49.798Z,33.9
2022-11-07T05:20:54.234Z,32.2
2022-11-07T05:21:58.572Z,31.2
2022-11-07T05:23:08.090Z,28.4
2022-11-07T05:24:17.815Z,23.8
2022-11-07T05:25:21.926Z,29.3
2022-11-07T05:26:26.449Z,29.5
2022-11-07T05:27:30.454Z,29.5
2022-11-07T05:28:39.018Z,26.3
2022-11-07T05:29:38.714Z,25.7
2022-11-07T05:30:43.320Z,26
2022-11-07T05:31:47.917Z,24.3
2022-11-07T05:32:52.074Z,23.9
2022-11-07T05:33:56.534Z,24.7
2022-11-07T05:35:00.603Z,26.6
2022-11-07T05:36:05.194Z,26.7
2022-11-07T05:37:09.206Z,22.6
2022-11-07T05:38:13.314Z,28.5
2022-11-07T05:39:17.473Z,26.4
2022-11-07T05:40:22.135Z,24.2
2022-11-07T05:41:26.710Z,25.9
2022-11-07T05:42:31.202Z,23.6
2022-11-07T05:43:35.314Z,24.6
2022-11-07T05:44:39.413Z,23.6
2022-11-07T05:45:43.983Z,23.4
2022-11-07T05:46:48.187Z,24.7
2022-11-07T05:47:52.666Z,22.7
2022-11-07T05:49:00.824Z,22.5
2022-11-07T05:50:00.880Z,20.9
2022-11-07T05:51:05.342Z,20.6
2022-11-07T05:52:09.578Z,20.3
2022-11-07T05:53:14.486Z,22.1
2022-11-07T05:54:18.226Z,19.6
2022-11-07T05:55:22.739Z,19.7
2022-11-07T05:56:26.742Z,21.9
2022-11-07T05:57:30.914Z,21.3
2022-11-07T05:58:35.050Z,19.8
2022-11-07T05:59:39.129Z,19.1
2022-11-07T06:00:43.778Z,17.6
2022-11-07T06:01:51.170Z,18.2
2022-11-07T06:02:52.436Z,17.2
2022-11-07T06:03:56.454Z,18.2
2022-11-07T06:05:00.522Z,18.3
2022-11-07T06:06:05.226Z,15.7
2022-11-07T06:07:09.810Z,17.4
2022-11-07T06:08:14.237Z,16.4
2022-11-07T06:09:18.414Z,15.4
2022-11-07T06:10:22.946Z,15.7
2022-11-07T06:11:27.535Z,17.3
2022-11-07T06:12:31.531Z,16.8
2022-11-07T06:13:35.650Z,15.3
2022-11-07T06:14:39.750Z,16.1
2022-11-07T06:15:44.254Z,15.2
2022-11-07T06:16:48.617Z,12.8
2022-11-07T06:17:53.102Z,13.6
2022-11-07T06:18:57.649Z,16.2
2022-11-07T06:20:02.206Z,13.6
2022-11-07T06:21:06.854Z,13.2
2022-11-07T06:22:11.289Z,14
2022-11-07T06:23:16.229Z,13.7
2022-11-07T06:24:19.974Z,12.2
2022-11-07T06:25:24.046Z,12.1
2022-11-07T06:26:28.362Z,12.8
2022-11-07T06:27:32.835Z,13.1
2022-11-07T06:28:37.369Z,13.3
2022-11-07T06:29:41.957Z,13.9
2022-11-07T06:30:45.917Z,13.9
2022-11-07T06:31:50.091Z,13.4
2022-11-07T06:32:54.125Z,13.6
2022-11-07T06:34:04.279Z,15.3
2022-11-07T06:35:08.350Z,13
2022-11-07T06:36:13.206Z,13.2
2022-11-07T06:37:18.114Z,14.2
2022-11-07T06:38:22.178Z,15.9
2022-11-07T06:39:26.698Z,14.8
2022-11-07T06:40:30.933Z,14.5
2022-11-07T06:41:34.966Z,15.4
2022-11-07T06:42:39.046Z,16
2022-11-07T06:43:43.322Z,15.5
2022-11-07T06:44:48.431Z,14.5
2022-11-07T06:45:52.718Z,15.4
2022-11-07T06:46:56.995Z,13.8
2022-11-07T06:48:01.370Z,15.2
2022-11-07T06:49:05.439Z,15.3
2022-11-07T06:50:09.706Z,14.1
2022-11-07T06:51:14.129Z,15
2022-11-07T06:52:18.246Z,13.8
2022-11-07T06:53:22.934Z,14.8
2022-11-07T06:54:27.481Z,13
2022-11-07T06:55:32.182Z,13.9
2022-11-07T06:56:40.965Z,12.4
2022-11-07T06:57:47.782Z,14.7
2022-11-07T06:58:51.853Z,14.7
2022-11-07T06:59:56.186Z,13.3
2022-11-07T07:01:00.532Z,13.4
2022-11-07T07:02:05.031Z,14.3
2022-11-07T07:03:09.660Z,12.5
2022-11-07T07:04:13.650Z,13.1
2022-11-07T07:05:21.016Z,14.6
2022-11-07T07:06:21.841Z,11.6
2022-11-07T07:07:25.865Z,13.6
2022-11-07T07:08:30.062Z,13.4
2022-11-07T07:09:34.563Z,13.3
2022-11-07T07:10:39.106Z,14.1
2022-11-07T07:11:43.314Z,11.6
2022-11-07T07:12:47.807Z,12.7
2022-11-07T07:13:51.938Z,14.3
2022-11-07T07:14:55.991Z,11.7
2022-11-07T07:16:00.629Z,11.7
2022-11-07T07:17:05.274Z,12.7
2022-11-07T07:18:09.635Z,14.3
2022-11-07T07:19:13.838Z,13.4
2022-11-07T07:20:18.026Z,13.1
2022-11-07T07:21:22.351Z,12.9
2022-11-07T07:22:26.414Z,12.4
2022-11-07T07:23:30.506Z,11.3
2022-11-07T07:24:37.719Z,12.7
2022-11-07T07:25:42.370Z,12.4
2022-11-07T07:26:46.445Z,12.7
2022-11-07T07:27:51.107Z,10.7
2022-11-07T07:28:55.538Z,12.9
2022-11-07T07:29:59.616Z,11.5
2022-11-07T07:31:04.295Z,12.8
2022-11-07T07:32:13.440Z,12.7
2022-11-07T07:33:18.479Z,14.2
2022-11-07T07:34:22.624Z,13.7
2022-11-07T07:35:27.319Z,13.5
2022-11-07T07:36:31.738Z,12.9
2022-11-07T07:37:36.614Z,14.1
2022-11-07T07:38:40.770Z,16.6
2022-11-07T07:39:44.958Z,14.7
2022-11-07T07:40:49.427Z,13
2022-11-07T07:41:53.599Z,13.3
2022-11-07T07:42:57.589Z,11.5
2022-11-07T07:44:02.254Z,12.4
2022-11-07T07:45:06.857Z,11
2022-11-07T07:46:11.424Z,12.1
2022-11-07T07:47:15.374Z,14.1
2022-11-07T07:48:19.575Z,12.9
2022-11-07T07:49:24.086Z,13.7
2022-11-07T07:50:28.766Z,14
2022-11-07T07:51:32.666Z,13.4
2022-11-07T07:52:36.754Z,13.1
2022-11-07T07:53:40.891Z,11.5
2022-11-07T07:54:45.001Z,13.2
2022-11-07T07:55:49.610Z,12.3
2022-11-07T07:56:56.760Z,11.8
2022-11-07T07:58:00.927Z,11.8
2022-11-07T07:59:05.335Z,13.5
2022-11-07T08:00:09.521Z,13
2022-11-07T08:01:14.143Z,14.7
2022-11-07T08:02:18.057Z,12.4
2022-11-07T08:03:22.146Z,15.6
2022-11-07T08:04:26.598Z,13.7
2022-11-07T08:05:30.723Z,13.8
2022-11-07T08:06:35.026Z,13.7
2022-11-07T08:07:39.346Z,11.4
2022-11-07T08:08:46.574Z,12.7
2022-11-07T08:09:51.177Z,11.9
2022-11-07T08:10:55.791Z,11.9
2022-11-07T08:12:03.314Z,15.2
2022-11-07T08:13:07.931Z,16.4
2022-11-07T08:14:12.305Z,13.3
2022-11-07T08:15:17.045Z,14.9
2022-11-07T08:16:21.242Z,13.3
2022-11-07T08:17:25.764Z,12.2
2022-11-07T08:18:30.176Z,11.7
2022-11-07T08:19:34.441Z,12
2022-11-07T08:20:38.990Z,11.3
2022-11-07T08:21:43.652Z,12
2022-11-07T08:22:48.189Z,10.7
2022-11-07T08:23:52.276Z,16.5
2022-11-07T08:24:56.797Z,10.8
2022-11-07T08:26:00.973Z,9.7
2022-11-07T08:27:05.581Z,12.6
2022-11-07T08:28:10.023Z,11.7
2022-11-07T08:29:14.251Z,11.2
2022-11-07T08:30:18.989Z,11.5
2022-11-07T08:31:23.436Z,15.9
2022-11-07T08:32:27.979Z,14.4
2022-11-07T08:33:32.537Z,9.7
2022-11-07T08:34:36.563Z,11.3
2022-11-07T08:35:42.602Z,10
2022-11-07T08:36:45.060Z,11.9
2022-11-07T08:37:49.235Z,12.3
2022-11-07T08:38:53.359Z,11.4
2022-11-07T08:39:57.410Z,10.1
2022-11-07T08:41:01.539Z,12.1
2022-11-07T08:42:06.102Z,9.8
2022-11-07T08:43:10.636Z,11.7
2022-11-07T08:44:15.004Z,10.4
2022-11-07T08:45:19.251Z,10.9
2022-11-07T08:46:23.454Z,10.4
2022-11-07T08:47:27.524Z,11.8
2022-11-07T08:48:31.660Z,10.6
2022-11-07T08:49:36.045Z,12.2
2022-11-07T08:50:40.145Z,11.2
2022-11-07T08:51:44.221Z,10.5
2022-11-07T08:52:48.835Z,13
2022-11-07T08:53:52.963Z,11.5
2022-11-07T08:54:56.988Z,12.8
2022-11-07T08:56:01.067Z,12.5
2022-11-07T08:57:08.267Z,12.3
2022-11-07T08:58:12.248Z,12.4
2022-11-07T08:59:16.403Z,13.3
2022-11-07T09:00:20.415Z,12.1
2022-11-07T09:01:25.618Z,13.8
2022-11-07T09:03:46.492Z,11.7
2022-11-07T09:04:40.839Z,14.3
2022-11-07T09:05:44.944Z,13.5
2022-11-07T09:06:49.414Z,11.9
2022-11-07T09:07:53.654Z,14.1
2022-11-07T09:08:57.731Z,12
2022-11-07T09:10:02.382Z,12.6
2022-11-07T09:11:06.944Z,14
2022-11-07T09:12:11.403Z,15.3
2022-11-07T09:13:15.880Z,14.3
2022-11-07T09:14:20.087Z,12.9
2022-11-07T09:15:24.128Z,13.1
2022-11-07T09:16:28.238Z,12
2022-11-07T09:17:32.339Z,11.5
2022-11-07T09:18:36.416Z,12.7
2022-11-07T09:19:40.342Z,10.8
2022-11-07T09:20:44.616Z,11
2022-11-07T09:21:49.139Z,10.9
2022-11-07T09:22:53.223Z,11.9
2022-11-07T09:23:57.234Z,12.2
2022-11-07T09:25:01.319Z,11.2
2022-11-07T09:26:05.850Z,12.4
2022-11-07T09:27:09.986Z,12.8
2022-11-07T09:28:13.954Z,11.8
2022-11-07T09:29:18.215Z,10
2022-11-07T09:30:22.705Z,13.7
2022-11-07T09:31:26.743Z,11.2
2022-11-07T09:32:44.229Z,10.9
2022-11-07T09:33:34.983Z,13.4
2022-11-07T09:34:39.720Z,10.5
2022-11-07T09:35:44.100Z,12.8
2022-11-07T09:36:48.531Z,10.6
2022-11-07T09:37:52.685Z,11.6
2022-11-07T09:38:56.875Z,11.3
2022-11-07T09:40:00.889Z,12.5
2022-11-07T09:41:05.469Z,13.5
2022-11-07T09:42:17.552Z,11.7
2022-11-07T09:43:26.744Z,11.9
2022-11-07T09:44:41.439Z,12.6
2022-11-07T09:45:53.840Z,11
2022-11-07T09:47:08.551Z,13.2
2022-11-07T09:48:12.651Z,14.2
2022-11-07T09:49:17.147Z,11.8
2022-11-07T09:50:26.839Z,13.4
2022-11-07T09:51:36.007Z,12.4
2022-11-07T09:52:40.064Z,11.5
2022-11-07T09:53:44.095Z,10.5
2022-11-07T09:54:48.235Z,11
2022-11-07T09:56:00.604Z,11.8
2022-11-07T09:57:05.045Z,12.7
2022-11-07T09:58:09.183Z,11.7
2022-11-07T09:59:19.795Z,12.1
2022-11-07T10:00:31.952Z,14.3
2022-11-07T10:01:36.203Z,15
2022-11-07T10:02:40.123Z,12.9
2022-11-07T10:04:22.729Z,13.6
2022-11-07T10:04:51.226Z,12.2
2022-11-07T10:05:58.603Z,12.8
2022-11-07T10:07:05.639Z,12.2
2022-11-07T10:08:20.366Z,10.2
2022-11-07T10:09:29.584Z,11.2
2022-11-07T10:10:36.684Z,13.9
2022-11-07T10:11:51.452Z,10.2
2022-11-07T10:13:00.639Z,11
2022-11-07T10:14:15.363Z,11.8
2022-11-07T10:15:27.590Z,12.3
2022-11-07T10:16:37.203Z,13.8
2022-11-07T10:17:53.854Z,15.4
2022-11-07T10:19:04.245Z,13.1
2022-11-07T10:20:19.309Z,14.4
2022-11-07T10:21:39.470Z,12.6
2022-11-07T10:22:33.728Z,14.1
2022-11-07T10:23:43.339Z,11.7
2022-11-07T10:24:55.699Z,15.6
2022-11-07T10:26:05.261Z,13.3
2022-11-07T10:27:12.359Z,15.5
2022-11-07T10:28:16.503Z,11.1
2022-11-07T10:29:21.010Z,13.4
2022-11-07T10:30:25.038Z,14.1
2022-11-07T10:31:29.154Z,14.3
2022-11-07T10:32:33.262Z,9.8
2022-11-07T10:33:40.313Z,12
2022-11-07T10:34:54.105Z,12.3
2022-11-07T10:35:57.189Z,12.4
2022-11-07T10:37:01.760Z,12
2022-11-07T10:38:05.791Z,11.9
2022-11-07T10:39:15.362Z,13.5
2022-11-07T10:40:20.079Z,12.2
2022-11-07T10:41:24.064Z,11.5
2022-11-07T10:42:28.591Z,15.3
2022-11-07T10:43:33.003Z,12.5
2022-11-07T10:44:40.310Z,13
2022-11-07T10:45:44.451Z,13.7
2022-11-07T10:46:50.246Z,9.7
2022-11-07T10:47:53.090Z,11.8
2022-11-07T10:48:57.295Z,13.3
2022-11-07T10:50:01.747Z,12.7
2022-11-07T10:51:06.455Z,12.7
2022-11-07T10:52:10.882Z,12.1
2022-11-07T10:53:18.189Z,12.1
2022-11-07T10:54:22.584Z,11.7
2022-11-07T10:55:26.689Z,13.2
2022-11-07T10:56:30.828Z,11.7
2022-11-07T10:57:45.554Z,12.8
2022-11-07T10:58:50.071Z,11.6
2022-11-07T10:59:54.144Z,12.9
2022-11-07T11:00:58.319Z,10.7
2022-11-07T11:02:02.935Z,12.4
2022-11-07T11:03:15.240Z,11.6
2022-11-07T11:04:22.275Z,12.6
2022-11-07T11:05:26.749Z,10.8
2022-11-07T11:06:31.431Z,11.3
2022-11-07T11:07:36.035Z,12.8
2022-11-07T11:08:40.164Z,11
2022-11-07T11:09:44.596Z,13.7
2022-11-07T11:10:51.820Z,12.9
2022-11-07T11:11:56.387Z,14.6
2022-11-07T11:13:03.992Z,13.1
2022-11-07T11:14:08.025Z,13.3
2022-11-07T11:15:12.092Z,13.5
2022-11-07T11:16:16.204Z,13.1
2022-11-07T11:17:20.305Z,11.7
2022-11-07T11:18:24.380Z,14.9
2022-11-07T11:19:28.931Z,13
2022-11-07T11:20:41.117Z,11.6
2022-11-07T11:21:50.369Z,11.4
2022-11-07T11:22:54.850Z,12.8
2022-11-07T11:23:58.908Z,11
2022-11-07T11:25:03.588Z,12.9
2022-11-07T11:26:11.092Z,15.7
2022-11-07T11:27:25.488Z,12.3
2022-11-07T11:28:29.944Z,13.2
2022-11-07T11:29:39.752Z,13.7
2022-11-07T11:30:51.384Z,14.1
2022-11-07T11:31:58.972Z,14.6
2022-11-07T11:33:03.567Z,15.3
2022-11-07T11:34:13.284Z,14.5
2022-11-07T11:35:22.847Z,12.6
2022-11-07T11:36:34.996Z,13.5
2022-11-07T11:37:39.246Z,12.9
2022-11-07T11:38:43.413Z,13.4
2022-11-07T11:39:48.168Z,12.9
2022-11-07T11:41:01.726Z,15.7
2022-11-07T11:41:59.536Z,16.5
2022-11-07T11:43:04.142Z,15.4
2022-11-07T11:44:11.214Z,15.5
2022-11-07T11:45:18.351Z,15.9
2022-11-07T11:46:33.015Z,14.2
2022-11-07T11:47:37.224Z,14.4
2022-11-07T11:48:41.672Z,13.7
2022-11-07T11:49:53.999Z,14.7
2022-11-07T11:51:03.587Z,13.4
2022-11-07T11:52:07.861Z,14.4
2022-11-07T11:53:17.789Z,17.2
2022-11-07T11:54:21.684Z,16.9
2022-11-07T11:55:26.198Z,14.1
2022-11-07T11:56:30.616Z,16
2022-11-07T11:57:45.471Z,14.3
2022-11-07T11:59:00.200Z,15
2022-11-07T12:00:12.891Z,17.4
2022-11-07T12:01:19.977Z,12.2
2022-11-07T12:02:32.141Z,13.2
2022-11-07T12:03:46.787Z,13
2022-11-07T12:04:56.113Z,11.7
2022-11-07T12:06:10.811Z,13.8
2022-11-07T12:07:15.318Z,16.5
2022-11-07T12:08:24.941Z,17
2022-11-07T12:09:37.325Z,14.8
2022-11-07T12:10:44.286Z,17.1
2022-11-07T12:11:56.579Z,16.7
2022-11-07T12:13:03.734Z,14.9
2022-11-07T12:14:13.485Z,15.5
2022-11-07T12:15:28.453Z,16.5
2022-11-07T12:16:42.810Z,15.4
2022-11-07T12:17:55.018Z,16.3
2022-11-07T12:19:04.304Z,12.6
2022-11-07T12:20:14.074Z,12.8
2022-11-07T12:21:23.497Z,12.8
2022-11-07T12:22:33.844Z,11.4
2022-11-07T12:23:43.570Z,10.9
2022-11-07T12:24:48.107Z,12.4
2022-11-07T12:25:57.698Z,11.7
2022-11-07T12:27:02.358Z,11.6
2022-11-07T12:28:12.001Z,12.1
2022-11-07T12:29:26.639Z,12.8
2022-11-07T12:30:35.803Z,11.3
2022-11-07T12:31:47.900Z,11.7
2022-11-07T12:33:02.280Z,12.2
2022-11-07T12:34:11.857Z,12
2022-11-07T12:35:21.527Z,15.2
2022-11-07T12:36:28.203Z,13.8
2022-11-07T12:37:40.562Z,11.7
2022-11-07T12:38:47.985Z,11
2022-11-07T12:40:00.267Z,9.2
2022-11-07T12:41:06.833Z,10.8
2022-11-07T12:42:13.932Z,11.3
2022-11-07T12:43:23.155Z,12.5
2022-11-07T12:44:32.929Z,12.8
2022-11-07T12:45:40.040Z,12.5
2022-11-07T12:46:54.641Z,12.9
2022-11-07T12:47:58.759Z,12.4
2022-11-07T12:49:10.959Z,11.6
2022-11-07T12:50:18.347Z,10.8
2022-11-07T12:51:30.827Z,12.9
2022-11-07T12:52:40.563Z,16.4
2022-11-07T12:53:51.023Z,11.2
2022-11-07T12:55:05.803Z,11
2022-11-07T12:56:20.593Z,10.7
2022-11-07T12:57:25.227Z,11.9
2022-11-07T12:58:29.235Z,11.8
2022-11-07T12:59:33.338Z,11.7
2022-11-07T13:00:37.835Z,9.5
2022-11-07T13:01:42.140Z,9.7
2022-11-07T13:02:49.040Z,11.3
2022-11-07T13:04:06.151Z,9.9
2022-11-07T13:05:23.366Z,9.6
2022-11-07T13:06:37.914Z,9.4
2022-11-07T13:07:42.822Z,11
2022-11-07T13:08:47.163Z,10.5
2022-11-07T13:09:59.273Z,11.9
2022-11-07T13:11:09.138Z,10.9
2022-11-07T13:12:21.122Z,10.4
2022-11-07T13:13:32.207Z,10.4
2022-11-07T13:14:41.339Z,10.8
2022-11-07T13:16:09.319Z,12.4
2022-11-07T13:16:49.696Z,10.8
2022-11-07T13:18:02.382Z,11.3
2022-11-07T13:19:14.571Z,12.7
2022-11-07T13:20:24.158Z,11.8
2022-11-07T13:21:28.270Z,9.4
2022-11-07T13:22:32.269Z,10.3
2022-11-07T13:23:36.485Z,11.1
2022-11-07T13:24:40.939Z,11.5
2022-11-07T13:25:51.073Z,11.3
2022-11-07T13:27:00.897Z,11.1
2022-11-07T13:28:05.085Z,12.4
2022-11-07T13:29:14.683Z,9.5
2022-11-07T13:30:27.047Z,10.7
2022-11-07T13:31:31.442Z,10
2022-11-07T13:32:35.534Z,10
2022-11-07T13:33:39.602Z,8.7
2022-11-07T13:34:43.782Z,9.4
2022-11-07T13:35:55.902Z,9.4
2022-11-07T13:37:00.110Z,9.9
2022-11-07T13:38:08.664Z,10.6
2022-11-07T13:39:14.314Z,10.2
2022-11-07T13:40:18.346Z,11.5
2022-11-07T13:41:28.146Z,9.1
2022-11-07T13:42:32.571Z,8.4
2022-11-07T13:43:36.634Z,8.9
2022-11-07T13:44:48.754Z,12.6
2022-11-07T13:45:52.967Z,11.8
2022-11-07T13:46:57.046Z,10.1
2022-11-07T13:48:04.110Z,10.6
2022-11-07T13:49:13.777Z,9.8
2022-11-07T13:50:20.293Z,8.9
2022-11-07T13:51:24.535Z,12
2022-11-07T13:52:35.134Z,10.4
2022-11-07T13:53:39.174Z,11.2
2022-11-07T13:54:48.775Z,12.5
2022-11-07T13:55:52.777Z,12
2022-11-07T13:57:07.190Z,10.8
2022-11-07T13:58:19.408Z,9.3
2022-11-07T13:59:23.439Z,10
2022-11-07T14:00:38.209Z,11.8
2022-11-07T14:01:42.788Z,10.6
2022-11-07T14:02:46.791Z,10.7
2022-11-07T14:03:51.377Z,10.6
2022-11-07T14:05:15.097Z,9.6
2022-11-07T14:06:10.106Z,9.7
2022-11-07T14:07:14.226Z,10.8
2022-11-07T14:08:18.822Z,9.3
2022-11-07T14:09:23.270Z,9.1
2022-11-07T14:10:27.262Z,10.4
2022-11-07T14:11:41.668Z,11.4
2022-11-07T14:12:46.154Z,10.6
2022-11-07T14:13:50.819Z,12.1
2022-11-07T14:14:54.803Z,12.1
2022-11-07T14:15:58.962Z,11.1
2022-11-07T14:17:03.033Z,12
2022-11-07T14:18:07.670Z,11.3
2022-11-07T14:19:15.192Z,10
2022-11-07T14:20:25.333Z,10.3
2022-11-07T14:21:29.534Z,13
2022-11-07T14:22:34.182Z,13.7
2022-11-07T14:23:38.786Z,10.9
2022-11-07T14:24:43.274Z,12.9
2022-11-07T14:25:50.474Z,14.7
2022-11-07T14:27:03.018Z,14.2
2022-11-07T14:28:07.622Z,13.5
2022-11-07T14:29:15.144Z,15
2022-11-07T14:30:22.350Z,14.3
2022-11-07T14:31:26.376Z,13.8
2022-11-07T14:32:32.074Z,14
2022-11-07T14:33:35.198Z,15.6
2022-11-07T14:34:39.738Z,14
2022-11-07T14:35:43.742Z,12.3
2022-11-07T14:36:47.969Z,10.4
2022-11-07T14:37:54.985Z,10.5
2022-11-07T14:38:59.098Z,12.7
2022-11-07T14:40:03.723Z,10.6
2022-11-07T14:41:08.161Z,9.4
2022-11-07T14:42:12.757Z,11.7